Time;durP1;ratioP1;P1;durP2;ratioP2;P2;SDS_P1;SDS_P2;PMS_P1;PMS_P2;Temp;Humidity;BMP_temperature;BMP_pressure;BME280_temperature;BME280_humidity;BME280_pressure;Samples;Min_cycle;Max_cycle;Signal;HPM_P1;HPM_P2
2023/03/29 00:01:13;;;;;;;7.20;2.60;;;5.50;93.30;;;;;;5083292;28;20028;-65
2023/03/29 00:03:42;;;;;;;4.90;2.60;;;5.50;94.00;;;;;;5086278;28;20032;-67
2023/03/29 00:06:08;;;;;;;4.30;2.30;;;5.60;94.20;;;;;;5078062;28;20033;-65
2023/03/29 00:08:34;;;;;;;7.45;2.65;;;5.50;93.90;;;;;;5075420;28;20043;-65
2023/03/29 00:11:00;;;;;;;4.53;2.53;;;5.60;94.00;;;;;;5077587;28;20043;-66
2023/03/29 00:13:26;;;;;;;9.02;2.85;;;5.50;94.50;;;;;;5084493;28;20020;-66
2023/03/29 00:15:55;;;;;;;4.55;2.65;;;5.50;94.70;;;;;;5081570;28;20032;-66
2023/03/29 00:18:21;;;;;;;5.68;2.85;;;5.50;94.80;;;;;;5083311;28;20024;-66
2023/03/29 00:20:57;;;;;;;4.88;2.67;;;5.50;94.80;;;;;;5080158;28;20351;-67
2023/03/29 00:23:24;;;;;;;5.43;3.13;;;5.50;95.00;;;;;;5083146;28;20028;-66
2023/03/29 00:25:51;;;;;;;5.50;3.25;;;5.50;95.10;;;;;;5086085;28;20313;-65
2023/03/29 00:28:16;;;;;;;7.18;3.03;;;5.50;95.20;;;;;;5091485;28;20459;-65
2023/03/29 00:30:42;;;;;;;6.97;2.95;;;5.40;94.50;;;;;;5083420;28;20025;-65
2023/03/29 00:33:08;;;;;;;4.78;2.70;;;5.50;94.30;;;;;;5084675;28;20424;-65
2023/03/29 00:35:33;;;;;;;5.22;2.45;;;5.50;93.70;;;;;;5079987;28;20048;-64
2023/03/29 00:37:59;;;;;;;4.85;2.47;;;5.70;91.30;;;;;;5086620;28;20052;-66
2023/03/29 00:40:24;;;;;;;8.95;2.70;;;5.80;91.50;;;;;;5075327;28;20328;-66
2023/03/29 00:42:50;;;;;;;5.95;2.90;;;6.00;89.10;;;;;;5070592;28;20036;-65
2023/03/29 00:45:22;;;;;;;6.85;2.90;;;6.00;91.50;;;;;;5074299;28;20032;-66
2023/03/29 00:47:50;;;;;;;5.72;3.17;;;5.80;92.00;;;;;;5073544;28;20127;-65
2023/03/29 00:50:25;;;;;;;6.18;3.20;;;5.80;93.10;;;;;;5072696;28;20028;-64
2023/03/29 00:52:58;;;;;;;7.30;3.03;;;5.70;92.10;;;;;;5072233;28;20024;-64
2023/03/29 00:55:26;;;;;;;6.95;3.22;;;5.70;92.30;;;;;;5073514;28;20062;-64
2023/03/29 00:57:54;;;;;;;6.03;3.08;;;5.60;92.30;;;;;;5072124;28;20040;-64
2023/03/29 01:00:25;;;;;;;6.80;3.38;;;5.60;91.60;;;;;;5073769;28;20035;-64
2023/03/29 01:02:58;;;;;;;6.65;3.22;;;5.70;91.60;;;;;;5071551;28;20042;-66
2023/03/29 01:05:39;;;;;;;6.90;3.10;;;5.70;91.00;;;;;;5072629;28;21089;-66
2023/03/29 01:08:06;;;;;;;6.28;3.13;;;5.70;90.90;;;;;;5077241;28;20024;-66
2023/03/29 01:10:38;;;;;;;8.52;3.28;;;5.70;91.20;;;;;;5079523;28;20059;-66
2023/03/29 01:13:15;;;;;;;6.10;3.30;;;5.70;91.20;;;;;;5081209;28;20127;-66
2023/03/29 01:15:44;;;;;;;7.72;3.30;;;5.70;90.10;;;;;;5080694;28;20024;-66
2023/03/29 01:18:09;;;;;;;7.65;3.30;;;5.80;90.20;;;;;;5079091;28;20027;-66
2023/03/29 01:21:32;;;;;;;6.57;3.58;;;5.80;90.40;;;;;;5079104;28;21703;-66
2023/03/29 01:24:10;;;;;;;6.38;3.75;;;5.70;90.30;;;;;;5087076;28;20032;-66
2023/03/29 01:26:42;;;;;;;7.18;3.75;;;5.70;90.90;;;;;;5079501;28;20025;-65
2023/03/29 01:29:19;;;;;;;6.88;3.50;;;5.60;91.00;;;;;;5080588;28;20036;-66
2023/03/29 01:31:51;;;;;;;6.72;3.90;;;5.60;91.10;;;;;;5081998;28;20108;-66
2023/03/29 01:34:29;;;;;;;8.00;3.55;;;5.60;90.70;;;;;;5075330;28;20085;-66
2023/03/29 01:37:03;;;;;;;5.25;3.17;;;5.60;90.40;;;;;;5081776;28;20420;-65
2023/03/29 01:39:29;;;;;;;6.85;3.25;;;5.60;89.10;;;;;;5087376;28;20028;-66
2023/03/29 01:42:20;;;;;;;6.35;3.25;;;5.70;89.10;;;;;;5081256;28;20129;-66
2023/03/29 01:45:07;;;;;;;7.50;3.20;;;5.70;89.30;;;;;;5081944;28;20028;-65
2023/03/29 01:47:45;;;;;;;6.85;3.13;;;5.60;89.60;;;;;;5075877;28;20012;-66
2023/03/29 01:50:27;;;;;;;8.48;3.03;;;5.70;88.80;;;;;;5073986;28;20357;-65
2023/03/29 01:52:58;;;;;;;8.05;3.15;;;5.80;86.00;;;;;;5077065;28;20028;-65
2023/03/29 01:55:30;;;;;;;6.82;2.97;;;6.00;86.10;;;;;;5081948;28;20024;-65
2023/03/29 01:57:58;;;;;;;5.70;2.40;;;6.00;87.00;;;;;;5078177;28;20045;-65
2023/03/29 02:00:28;;;;;;;4.60;2.30;;;6.00;85.80;;;;;;5077318;28;20039;-65
2023/03/29 02:03:02;;;;;;;7.18;2.30;;;6.20;83.10;;;;;;5079245;28;20025;-66
2023/03/29 02:05:30;;;;;;;4.93;2.20;;;6.50;81.10;;;;;;5080968;28;20360;-67
2023/03/29 02:07:58;;;;;;;4.20;2.10;;;6.80;79.20;;;;;;5086166;28;20439;-65
2023/03/29 02:10:25;;;;;;;5.60;2.42;;;7.10;78.30;;;;;;5086925;28;20024;-66
2023/03/29 02:12:51;;;;;;;6.35;2.40;;;7.30;78.00;;;;;;5092462;28;20028;-66
2023/03/29 02:15:19;;;;;;;7.22;2.45;;;7.30;78.20;;;;;;5085148;28;20031;-66
2023/03/29 02:17:46;;;;;;;4.40;2.10;;;7.30;79.00;;;;;;5081832;28;20021;-67
2023/03/29 02:20:21;;;;;;;3.63;1.70;;;7.30;80.00;;;;;;5082540;28;20024;-66
2023/03/29 02:22:51;;;;;;;4.70;2.00;;;7.20;80.60;;;;;;5091341;28;20446;-66
2023/03/29 02:25:18;;;;;;;3.85;1.77;;;7.20;81.30;;;;;;5082332;28;20107;-65
2023/03/29 02:27:44;;;;;;;2.97;1.63;;;7.10;81.60;;;;;;5080678;28;20032;-66
2023/03/29 02:30:11;;;;;;;5.70;1.60;;;7.10;81.90;;;;;;5084010;28;20032;-66
2023/03/29 02:32:58;;;;;;;4.63;1.58;;;7.00;82.10;;;;;;5085024;28;20028;-66
2023/03/29 02:35:33;;;;;;;7.90;2.00;;;7.00;82.60;;;;;;5082257;28;20033;-66
2023/03/29 02:38:02;;;;;;;2.78;1.55;;;6.90;83.10;;;;;;5082835;28;20317;-66
2023/03/29 02:40:29;;;;;;;6.28;2.08;;;7.00;83.10;;;;;;5080582;28;21621;-65
2023/03/29 02:42:56;;;;;;;7.32;2.10;;;6.90;83.10;;;;;;5083039;28;20123;-67
2023/03/29 02:45:22;;;;;;;4.38;1.50;;;6.90;82.70;;;;;;5085237;28;20037;-66
2023/03/29 02:47:52;;;;;;;4.95;1.52;;;6.90;83.10;;;;;;5084575;28;21608;-66
2023/03/29 02:50:19;;;;;;;3.40;1.60;;;6.90;83.20;;;;;;5085590;28;20116;-66
2023/03/29 02:53:03;;;;;;;3.80;1.60;;;6.90;83.10;;;;;;5086166;28;20035;-66
2023/03/29 02:55:33;;;;;;;;;;;7.00;82.70;;;;;;5089235;28;20053;-66
2023/03/29 02:58:06;;;;;;;5.13;1.75;;;7.00;83.10;;;;;;5093018;28;19978;-66
2023/03/29 03:00:32;;;;;;;4.82;1.42;;;7.00;82.70;;;;;;5083432;28;20028;-66
2023/03/29 03:02:58;;;;;;;4.45;1.50;;;7.00;82.90;;;;;;5086461;28;20028;-66
2023/03/29 03:05:24;;;;;;;6.15;1.85;;;7.10;82.10;;;;;;5081472;28;20025;-67
2023/03/29 03:07:50;;;;;;;3.58;1.20;;;7.10;82.20;;;;;;5079948;28;20389;-66
2023/03/29 03:10:18;;;;;;;2.83;1.50;;;7.10;81.70;;;;;;5088300;28;20169;-66
2023/03/29 03:12:47;;;;;;;3.22;1.35;;;7.20;81.30;;;;;;5091571;28;20789;-66
2023/03/29 03:15:13;;;;;;;5.03;1.50;;;7.30;81.40;;;;;;5092435;28;20054;-66
2023/03/29 03:17:38;;;;;;;3.58;1.20;;;7.30;81.00;;;;;;5087011;28;20074;-66
2023/03/29 03:20:09;;;;;;;2.90;1.52;;;7.30;81.50;;;;;;5085994;28;20025;-65
2023/03/29 03:22:35;;;;;;;2.88;1.30;;;7.30;81.10;;;;;;5085735;28;20544;-66
2023/03/29 03:25:00;;;;;;;2.15;1.13;;;7.40;80.60;;;;;;5082811;28;20029;-66
2023/03/29 03:27:26;;;;;;;5.38;1.50;;;7.40;81.40;;;;;;5081994;28;20028;-65
2023/03/29 03:29:52;;;;;;;3.88;1.40;;;7.40;80.40;;;;;;5078982;28;20060;-65
2023/03/29 03:32:17;;;;;;;2.58;1.23;;;7.40;79.90;;;;;;5085304;28;20035;-65
2023/03/29 03:34:43;;;;;;;3.97;1.27;;;7.60;78.80;;;;;;5090639;28;20028;-65
2023/03/29 03:37:10;;;;;;;3.63;1.50;;;7.70;79.50;;;;;;5083161;28;20028;-65
2023/03/29 03:39:36;;;;;;;3.15;1.55;;;7.70;79.10;;;;;;5088587;28;20016;-66
2023/03/29 03:42:02;;;;;;;4.03;1.60;;;7.70;79.00;;;;;;5092126;28;20028;-65
2023/03/29 03:44:28;;;;;;;3.25;1.23;;;7.70;78.10;;;;;;5078226;28;20028;-65
2023/03/29 03:46:53;;;;;;;5.20;1.25;;;7.70;77.90;;;;;;5085780;28;20102;-64
2023/03/29 03:49:20;;;;;;;4.07;1.40;;;7.80;76.70;;;;;;5083507;28;20024;-65
2023/03/29 03:51:46;;;;;;;3.22;1.40;;;8.00;76.20;;;;;;5081994;28;20024;-64
2023/03/29 03:54:11;;;;;;;2.88;1.23;;;8.00;76.30;;;;;;5081151;28;20444;-64
2023/03/29 03:56:40;;;;;;;2.95;1.20;;;8.00;76.50;;;;;;5087446;28;20019;-65
2023/03/29 03:59:06;;;;;;;4.53;1.40;;;8.00;75.80;;;;;;5079496;28;20024;-64
2023/03/29 04:01:32;;;;;;;2.92;1.27;;;8.00;76.40;;;;;;5091585;28;20049;-65
2023/03/29 04:03:58;;;;;;;3.25;1.27;;;8.00;75.50;;;;;;5089601;28;20416;-65
2023/03/29 04:06:24;;;;;;;3.70;1.10;;;8.00;75.50;;;;;;5091949;28;20028;-65
2023/03/29 04:08:50;;;;;;;3.47;1.38;;;8.00;75.90;;;;;;5080025;28;20027;-66
2023/03/29 04:11:16;;;;;;;5.22;1.40;;;8.10;75.10;;;;;;5096317;28;20028;-66
2023/03/29 04:13:41;;;;;;;5.30;1.35;;;8.00;75.90;;;;;;5081010;28;20031;-66
2023/03/29 04:16:07;;;;;;;5.00;1.30;;;8.10;74.90;;;;;;5081677;28;20032;-66
2023/03/29 04:18:32;;;;;;;6.82;1.55;;;8.10;75.90;;;;;;5083064;28;20028;-66
2023/03/29 04:20:58;;;;;;;3.17;1.30;;;8.10;75.80;;;;;;5088316;28;20090;-67
2023/03/29 04:23:24;;;;;;;3.38;1.13;;;8.10;75.30;;;;;;5088710;28;20028;-66
2023/03/29 04:25:54;;;;;;;7.95;1.80;;;8.20;74.20;;;;;;5092160;28;20404;-66
2023/03/29 04:28:20;;;;;;;4.80;1.63;;;8.20;75.40;;;;;;5084655;28;20028;-66
2023/03/29 04:30:46;;;;;;;3.63;1.50;;;8.20;74.90;;;;;;5087161;28;20348;-67
2023/03/29 04:33:12;;;;;;;2.78;1.20;;;8.20;75.30;;;;;;5088906;28;20062;-66
2023/03/29 04:35:38;;;;;;;3.05;1.23;;;8.20;75.00;;;;;;5078666;28;20104;-67
2023/03/29 04:38:03;;;;;;;7.10;1.50;;;8.20;75.20;;;;;;5082199;28;20320;-66
2023/03/29 04:40:29;;;;;;;4.38;1.40;;;8.20;75.60;;;;;;5083278;28;20109;-66
2023/03/29 04:42:55;;;;;;;4.03;1.60;;;8.20;75.30;;;;;;5078003;28;20032;-66
2023/03/29 04:45:20;;;;;;;5.38;1.75;;;8.20;75.40;;;;;;5084823;28;20028;-65
2023/03/29 04:47:46;;;;;;;4.80;1.70;;;8.20;75.70;;;;;;5076579;28;20123;-65
2023/03/29 04:50:12;;;;;;;4.97;1.45;;;8.20;76.10;;;;;;5084147;28;20036;-65
2023/03/29 04:52:38;;;;;;;4.28;1.67;;;8.10;76.90;;;;;;5094507;28;20032;-65
2023/03/29 04:55:05;;;;;;;3.67;1.58;;;8.10;77.70;;;;;;5077182;28;20083;-65
2023/03/29 04:57:31;;;;;;;6.88;1.95;;;8.10;78.60;;;;;;5074270;28;20076;-65
2023/03/29 04:59:57;;;;;;;4.55;1.70;;;8.10;79.60;;;;;;5075879;28;20394;-66
2023/03/29 05:02:23;;;;;;;8.45;2.08;;;8.20;79.90;;;;;;5089466;28;20096;-66
2023/03/29 05:04:49;;;;;;;6.07;2.15;;;8.20;80.30;;;;;;5081566;28;20126;-66
2023/03/29 05:07:16;;;;;;;3.80;1.45;;;8.20;80.40;;;;;;5077320;28;20024;-66
2023/03/29 05:09:42;;;;;;;4.28;2.03;;;8.20;80.60;;;;;;5073110;28;20317;-65
2023/03/29 05:12:08;;;;;;;8.50;2.13;;;8.10;81.00;;;;;;5094044;28;20147;-66
2023/03/29 05:14:33;;;;;;;5.65;2.10;;;8.10;81.30;;;;;;5084676;28;20076;-66
2023/03/29 05:17:00;;;;;;;5.30;2.58;;;8.10;81.50;;;;;;5076726;28;20082;-65
2023/03/29 05:19:26;;;;;;;6.32;2.22;;;8.00;81.80;;;;;;5080089;28;20036;-67
2023/03/29 05:21:52;;;;;;;4.68;2.17;;;8.10;81.90;;;;;;5083587;28;20025;-65
2023/03/29 05:24:18;;;;;;;6.43;2.03;;;8.00;82.10;;;;;;5082608;28;20653;-66
2023/03/29 05:26:46;;;;;;;5.63;2.03;;;8.00;82.40;;;;;;5076191;28;20029;-66
2023/03/29 05:29:12;;;;;;;6.13;2.30;;;8.00;82.70;;;;;;5081362;28;20032;-66
2023/03/29 05:31:38;;;;;;;4.13;2.10;;;8.00;82.90;;;;;;5090416;28;20090;-66
2023/03/29 05:34:05;;;;;;;5.72;2.20;;;7.90;82.70;;;;;;5081713;28;20489;-66
2023/03/29 05:36:31;;;;;;;6.50;2.33;;;8.00;83.10;;;;;;5082181;28;20424;-66
2023/03/29 05:38:58;;;;;;;5.07;2.03;;;8.00;83.30;;;;;;5093274;28;20021;-65
2023/03/29 05:41:24;;;;;;;6.90;2.15;;;8.00;83.30;;;;;;5075367;28;20029;-66
2023/03/29 05:43:50;;;;;;;7.28;2.20;;;8.00;83.30;;;;;;5076809;28;20024;-66
2023/03/29 05:46:15;;;;;;;5.47;2.40;;;7.90;83.40;;;;;;5088104;28;20097;-65
2023/03/29 05:48:41;;;;;;;6.80;3.33;;;8.00;83.40;;;;;;5079058;28;20355;-65
2023/03/29 05:51:07;;;;;;;6.35;3.00;;;8.00;83.20;;;;;;5082763;28;20443;-66
2023/03/29 05:53:34;;;;;;;5.93;2.50;;;8.00;83.40;;;;;;5091844;28;20039;-66
2023/03/29 05:55:59;;;;;;;11.05;5.07;;;8.10;83.20;;;;;;5094617;28;20480;-65
2023/03/29 05:58:25;;;;;;;5.75;2.58;;;8.10;83.40;;;;;;5075877;28;20131;-65
2023/03/29 06:00:51;;;;;;;4.32;2.00;;;8.10;83.60;;;;;;5075342;28;20046;-65
2023/03/29 06:03:24;;;;;;;5.13;1.80;;;8.20;83.30;;;;;;5087614;28;20420;-65
2023/03/29 06:06:01;;;;;;;4.30;1.95;;;8.20;82.80;;;;;;5079774;28;20032;-65
2023/03/29 06:08:31;;;;;;;4.68;2.15;;;8.20;83.10;;;;;;5075594;28;20052;-65
2023/03/29 06:10:59;;;;;;;5.00;1.83;;;8.20;82.70;;;;;;5081101;28;20036;-65
2023/03/29 06:13:26;;;;;;;8.65;2.30;;;8.20;83.00;;;;;;5087047;28;20340;-65
2023/03/29 06:15:52;;;;;;;5.95;2.40;;;8.30;83.40;;;;;;5088306;28;20031;-65
2023/03/29 06:18:19;;;;;;;3.65;1.50;;;8.30;83.30;;;;;;5075977;28;20025;-65
2023/03/29 06:20:48;;;;;;;4.78;2.15;;;8.30;82.30;;;;;;5077860;28;20025;-65
2023/03/29 06:23:14;;;;;;;3.40;1.60;;;8.30;82.20;;;;;;5083078;28;20039;-65
2023/03/29 06:25:39;;;;;;;4.72;1.60;;;8.30;82.20;;;;;;5100043;28;20028;-65
2023/03/29 06:28:06;;;;;;;5.55;1.70;;;8.40;81.70;;;;;;5092612;28;20106;-65
2023/03/29 06:30:31;;;;;;;5.63;1.92;;;8.40;81.20;;;;;;5087213;28;20070;-65
2023/03/29 06:33:00;;;;;;;5.38;2.20;;;8.40;81.60;;;;;;5089307;28;20035;-66
2023/03/29 06:35:26;;;;;;;6.00;2.50;;;8.40;82.10;;;;;;5093779;28;20047;-65
2023/03/29 06:37:53;;;;;;;5.15;2.13;;;8.50;81.70;;;;;;5080670;28;20029;-65
2023/03/29 06:40:20;;;;;;;7.60;2.50;;;8.50;82.30;;;;;;5091887;28;20024;-64
2023/03/29 06:42:46;;;;;;;4.75;2.10;;;8.60;82.00;;;;;;5090021;28;20111;-65
2023/03/29 06:45:12;;;;;;;6.20;3.08;;;8.60;82.50;;;;;;5076353;28;20032;-65
2023/03/29 06:47:38;;;;;;;7.28;3.15;;;8.60;82.20;;;;;;5090577;28;20066;-65
2023/03/29 06:50:04;;;;;;;6.18;2.53;;;8.80;81.30;;;;;;5076707;28;20413;-64
2023/03/29 06:52:30;;;;;;;5.80;2.00;;;8.90;79.80;;;;;;5079935;28;20482;-66
2023/03/29 06:54:55;;;;;;;6.25;2.80;;;9.20;78.80;;;;;;5090061;28;20100;-66
2023/03/29 06:57:21;;;;;;;7.07;2.55;;;9.40;79.20;;;;;;5095385;28;20070;-66
2023/03/29 06:59:47;;;;;;;4.90;1.90;;;9.40;78.50;;;;;;5097939;28;20420;-66
2023/03/29 07:02:13;;;;;;;6.68;2.60;;;9.60;78.00;;;;;;5093628;28;20484;-66
2023/03/29 07:04:40;;;;;;;6.55;2.38;;;9.70;77.20;;;;;;5096171;28;20067;-66
2023/03/29 07:07:10;;;;;;;4.18;1.80;;;9.80;77.10;;;;;;5097609;28;20058;-66
2023/03/29 07:09:38;;;;;;;4.22;2.05;;;10.00;76.10;;;;;;5097023;28;20417;-66
2023/03/29 07:12:04;;;;;;;5.05;2.00;;;10.30;75.40;;;;;;5087807;28;20409;-66
2023/03/29 07:14:30;;;;;;;6.05;2.00;;;10.60;75.50;;;;;;5090157;28;20056;-66
2023/03/29 07:16:59;;;;;;;4.32;1.65;;;10.80;73.50;;;;;;5088763;28;20028;-66
2023/03/29 07:19:26;;;;;;;3.70;1.80;;;11.10;72.20;;;;;;5081874;28;20127;-66
2023/03/29 07:21:53;;;;;;;4.50;1.50;;;11.20;71.40;;;;;;5087567;28;20024;-66
2023/03/29 07:24:19;;;;;;;3.90;1.80;;;11.20;70.20;;;;;;5096648;28;20147;-66
2023/03/29 07:26:45;;;;;;;4.60;1.85;;;11.10;70.70;;;;;;5097123;28;20078;-65
2023/03/29 07:29:12;;;;;;;6.07;1.60;;;11.10;70.70;;;;;;5085506;28;20031;-66
2023/03/29 07:31:39;;;;;;;6.60;1.40;;;11.10;70.10;;;;;;5092155;28;20103;-66
2023/03/29 07:34:09;;;;;;;3.60;1.38;;;11.10;69.60;;;;;;5081785;28;20336;-66
2023/03/29 07:36:38;;;;;;;4.60;1.63;;;11.10;69.50;;;;;;5081543;28;20344;-65
2023/03/29 07:39:05;;;;;;;6.80;1.95;;;11.00;69.40;;;;;;5091927;28;20431;-66
2023/03/29 07:41:31;;;;;;;4.97;1.75;;;10.90;69.90;;;;;;5090123;28;20024;-65
2023/03/29 07:43:57;;;;;;;3.88;1.50;;;10.80;70.10;;;;;;5076625;28;20473;-65
2023/03/29 07:46:23;;;;;;;3.70;1.67;;;10.80;70.30;;;;;;5096221;28;20056;-66
2023/03/29 07:48:51;;;;;;;5.78;1.63;;;10.70;69.80;;;;;;5096679;28;20495;-66
2023/03/29 07:51:17;;;;;;;3.78;1.55;;;10.70;70.50;;;;;;5096213;28;20158;-66
2023/03/29 07:53:42;;;;;;;6.68;1.95;;;10.70;70.40;;;;;;5090361;28;20456;-66
2023/03/29 07:56:08;;;;;;;7.40;3.20;;;10.70;70.50;;;;;;5077423;28;20012;-65
2023/03/29 07:58:34;;;;;;;6.57;2.80;;;10.80;72.10;;;;;;5077884;28;20044;-66
2023/03/29 08:00:59;;;;;;;5.88;2.97;;;10.90;71.60;;;;;;5076938;28;20032;-66
2023/03/29 08:03:26;;;;;;;5.45;3.00;;;11.00;71.90;;;;;;5077406;28;20041;-66
2023/03/29 08:05:52;;;;;;;5.75;2.30;;;11.20;71.90;;;;;;5077630;28;20050;-66
2023/03/29 08:08:17;;;;;;;6.82;3.13;;;11.30;71.60;;;;;;5076980;28;20048;-66
2023/03/29 08:10:43;;;;;;;6.68;3.22;;;11.40;72.70;;;;;;5079597;28;20074;-66
2023/03/29 08:13:09;;;;;;;7.72;2.97;;;11.50;72.30;;;;;;5083166;28;20034;-66
2023/03/29 08:15:37;;;;;;;8.00;4.55;;;11.60;72.60;;;;;;5090431;28;20021;-66
2023/03/29 08:18:04;;;;;;;13.18;5.38;;;11.40;72.80;;;;;;5078507;28;20413;-66
2023/03/29 08:20:29;;;;;;;5.85;3.05;;;11.30;73.30;;;;;;5079375;28;20056;-66
2023/03/29 08:22:55;;;;;;;7.00;2.40;;;11.40;73.30;;;;;;5077489;28;20059;-65
2023/03/29 08:25:21;;;;;;;7.93;4.88;;;11.50;72.20;;;;;;5076728;28;20040;-66
2023/03/29 08:27:47;;;;;;;6.72;2.80;;;11.60;72.40;;;;;;5078282;28;20333;-66
2023/03/29 08:30:13;;;;;;;5.45;2.20;;;11.50;72.70;;;;;;5077106;28;20025;-66
2023/03/29 08:32:40;;;;;;;5.88;2.30;;;11.50;72.20;;;;;;5079609;28;20028;-65
2023/03/29 08:35:08;;;;;;;7.03;2.58;;;11.60;72.30;;;;;;5078112;28;20033;-65
2023/03/29 08:37:35;;;;;;;6.18;2.90;;;11.50;72.80;;;;;;5081241;28;20410;-65
2023/03/29 08:40:01;;;;;;;5.75;2.25;;;11.60;72.90;;;;;;5076508;28;20024;-65
2023/03/29 08:42:53;;;;;;;5.97;2.60;;;11.40;73.10;;;;;;5076083;28;20035;-66
2023/03/29 08:45:25;;;;;;;9.02;3.65;;;11.20;72.30;;;;;;5079355;28;20428;-65
2023/03/29 08:48:13;;;;;;;6.82;2.50;;;11.10;73.20;;;;;;5078233;28;20028;-66
2023/03/29 08:50:46;;;;;;;17.90;8.43;;;11.30;73.40;;;;;;5076979;28;20025;-65
2023/03/29 08:53:24;;;;;;;9.40;4.60;;;11.40;72.30;;;;;;5078706;28;20313;-65
2023/03/29 08:55:54;;;;;;;6.18;2.55;;;11.60;72.00;;;;;;5077419;28;20441;-66
2023/03/29 08:58:25;;;;;;;5.72;2.35;;;11.70;72.10;;;;;;5076930;28;20048;-66
2023/03/29 09:00:57;;;;;;;4.97;1.98;;;11.70;71.50;;;;;;5076507;28;20025;-65
2023/03/29 09:03:27;;;;;;;5.40;1.92;;;11.80;71.50;;;;;;5085406;28;20368;-65
2023/03/29 09:06:07;;;;;;;4.85;1.85;;;12.00;71.20;;;;;;5088214;28;20039;-65
2023/03/29 09:08:40;;;;;;;6.75;2.97;;;12.10;70.30;;;;;;5076325;28;20035;-65
2023/03/29 09:11:31;;;;;;;8.32;2.63;;;12.30;70.70;;;;;;5077029;28;20499;-65
2023/03/29 09:14:25;;;;;;;5.93;2.80;;;12.40;71.00;;;;;;5073999;28;20108;-66
2023/03/29 09:17:12;;;;;;;7.82;3.10;;;12.60;71.10;;;;;;5077595;28;20092;-66
2023/03/29 09:19:46;;;;;;;5.78;2.67;;;12.90;69.70;;;;;;5079240;28;20024;-66
2023/03/29 09:22:30;;;;;;;;;;;12.90;69.00;;;;;;5094449;28;20028;-66
2023/03/29 09:25:20;;;;;;;11.05;5.97;;;13.30;69.60;;;;;;5093453;28;19911;-66
2023/03/29 09:28:10;;;;;;;6.80;2.63;;;13.70;68.90;;;;;;5083951;28;20032;-66
2023/03/29 09:30:41;;;;;;;6.13;2.92;;;14.00;67.00;;;;;;5079802;28;20024;-65
2023/03/29 09:33:07;;;;;;;6.38;2.53;;;14.20;67.30;;;;;;5079605;28;20111;-66
2023/03/29 09:35:42;;;;;;;6.10;2.90;;;14.20;66.20;;;;;;5075900;28;20059;-65
2023/03/29 09:38:16;;;;;;;8.68;3.38;;;14.30;66.50;;;;;;5075934;28;20034;-64
2023/03/29 09:40:57;;;;;;;4.47;2.00;;;14.30;66.40;;;;;;5075792;28;20126;-64
2023/03/29 09:43:35;;;;;;;6.15;2.92;;;14.40;65.50;;;;;;5074990;28;20029;-65
2023/03/29 09:46:14;;;;;;;6.60;3.00;;;14.40;66.70;;;;;;5077969;28;20025;-67
2023/03/29 09:48:42;;;;;;;6.95;2.45;;;14.50;66.30;;;;;;5075843;28;20089;-66
2023/03/29 09:51:09;;;;;;;6.80;2.60;;;14.40;67.10;;;;;;5075841;28;20028;-66
2023/03/29 09:53:35;;;;;;;8.90;2.40;;;14.30;66.40;;;;;;5075898;28;20073;-66
2023/03/29 09:56:01;;;;;;;4.50;2.33;;;14.40;66.80;;;;;;5077788;28;20103;-66
2023/03/29 09:58:30;;;;;;;6.57;2.40;;;14.80;66.90;;;;;;5074249;28;20058;-66
2023/03/29 10:01:03;;;;;;;5.60;2.15;;;15.10;66.30;;;;;;5082367;28;20032;-66
2023/03/29 10:03:30;;;;;;;6.90;2.35;;;14.90;65.50;;;;;;5087354;28;20035;-66
2023/03/29 10:06:00;;;;;;;5.47;2.40;;;15.40;67.10;;;;;;5078406;28;20036;-66
2023/03/29 10:08:27;;;;;;;6.38;2.75;;;16.30;63.80;;;;;;5075908;28;20472;-66
2023/03/29 10:10:56;;;;;;;9.52;2.92;;;17.00;63.40;;;;;;5075549;28;20024;-66
2023/03/29 10:13:30;;;;;;;5.05;1.92;;;17.20;62.30;;;;;;5074418;28;20052;-66
2023/03/29 10:15:56;;;;;;;;;;;16.40;63.50;;;;;;5078332;28;20027;-66
2023/03/29 10:18:24;;;;;;;5.70;1.75;;;16.20;65.20;;;;;;5075900;28;19904;-66
2023/03/29 10:20:49;;;;;;;7.47;2.13;;;15.90;63.40;;;;;;5079247;28;20068;-66
2023/03/29 10:23:18;;;;;;;6.72;1.75;;;15.90;63.90;;;;;;5095858;28;20067;-66
2023/03/29 10:25:44;;;;;;;5.10;2.33;;;15.90;64.40;;;;;;5086601;28;20028;-66
2023/03/29 10:28:20;;;;;;;7.20;2.17;;;16.10;64.10;;;;;;5098596;28;20032;-66
2023/03/29 10:30:52;;;;;;;6.47;2.17;;;15.70;63.70;;;;;;5088739;28;20320;-66
2023/03/29 10:33:20;;;;;;;6.78;2.30;;;15.60;65.30;;;;;;5086944;28;20067;-66
2023/03/29 10:35:49;;;;;;;3.95;1.77;;;15.70;65.40;;;;;;5086211;28;20178;-66
2023/03/29 10:38:18;;;;;;;5.70;1.98;;;16.40;64.20;;;;;;5089264;28;20024;-66
2023/03/29 10:40:48;;;;;;;4.30;1.52;;;16.80;62.60;;;;;;5079426;28;20029;-65
2023/03/29 10:43:36;;;;;;;5.22;1.75;;;16.50;62.50;;;;;;5089138;28;20416;-66
2023/03/29 10:46:26;;;;;;;5.10;2.20;;;15.90;63.70;;;;;;5079287;28;20033;-66
2023/03/29 10:48:57;;;;;;;6.13;1.85;;;15.50;64.40;;;;;;5079816;28;20478;-66
2023/03/29 10:51:24;;;;;;;3.88;1.70;;;15.10;65.60;;;;;;5082105;28;20097;-66
2023/03/29 10:53:49;;;;;;;7.10;2.55;;;15.00;66.10;;;;;;5087687;28;20042;-65
2023/03/29 10:56:37;;;;;;;4.57;2.05;;;14.80;65.90;;;;;;5090892;28;20111;-66
2023/03/29 10:59:09;;;;;;;6.20;2.28;;;14.60;66.60;;;;;;5077510;28;20029;-66
2023/03/29 11:01:51;;;;;;;8.73;2.63;;;14.50;66.40;;;;;;5081065;28;20052;-66
2023/03/29 11:04:44;;;;;;;21.50;10.27;;;14.50;66.80;;;;;;5093837;28;20051;-66
2023/03/29 11:07:31;;;;;;;7.20;2.00;;;14.50;67.40;;;;;;5079082;28;20309;-66
2023/03/29 11:10:18;;;;;;;6.97;1.88;;;14.60;67.40;;;;;;5091276;28;20044;-65
2023/03/29 11:13:07;;;;;;;6.47;2.45;;;14.60;67.10;;;;;;5077604;28;20032;-66
2023/03/29 11:15:54;;;;;;;5.60;2.20;;;14.60;67.90;;;;;;5079021;28;20029;-66
2023/03/29 11:18:34;;;;;;;4.78;2.03;;;14.50;68.30;;;;;;5078356;28;20020;-66
2023/03/29 11:21:13;;;;;;;7.10;1.85;;;14.50;67.90;;;;;;5089926;28;20063;-66
2023/03/29 11:23:41;;;;;;;5.10;2.30;;;14.60;68.10;;;;;;5099026;28;20032;-66
2023/03/29 11:26:40;;;;;;;5.90;1.50;;;14.80;68.30;;;;;;5084005;28;20093;-66
2023/03/29 11:29:21;;;;;;;7.00;2.15;;;15.00;67.70;;;;;;5077492;28;20067;-66
2023/03/29 11:32:19;;;;;;;3.65;1.73;;;15.10;67.10;;;;;;5095114;28;20055;-66
2023/03/29 11:34:51;;;;;;;6.25;2.47;;;14.80;67.00;;;;;;5079312;28;20074;-66
2023/03/29 11:37:42;;;;;;;4.80;2.20;;;14.70;68.50;;;;;;5083896;28;20055;-66
2023/03/29 11:40:11;;;;;;;7.88;3.45;;;14.80;68.00;;;;;;5079761;28;20016;-66
2023/03/29 11:42:42;;;;;;;7.70;2.90;;;15.00;67.70;;;;;;5092919;28;20539;-66
2023/03/29 11:45:14;;;;;;;5.95;1.98;;;15.10;67.30;;;;;;5078686;28;20477;-67
2023/03/29 11:47:43;;;;;;;4.47;2.10;;;15.10;67.40;;;;;;5091602;28;20032;-65
2023/03/29 11:50:15;;;;;;;5.10;1.85;;;15.10;67.30;;;;;;5096057;28;20113;-65
2023/03/29 11:52:58;;;;;;;6.15;2.20;;;15.10;68.00;;;;;;5080889;28;20050;-66
2023/03/29 11:55:30;;;;;;;6.45;2.35;;;15.10;67.80;;;;;;5096116;28;20098;-66
2023/03/29 11:58:36;;;;;;;6.32;2.22;;;15.30;68.80;;;;;;5094834;28;20067;-65
2023/03/29 12:01:08;;;;;;;7.50;2.35;;;15.80;68.00;;;;;;5083398;28;20442;-66
2023/03/29 12:03:54;;;;;;;6.38;1.70;;;15.90;67.20;;;;;;5095645;28;20427;-66
2023/03/29 12:06:26;;;;;;;4.03;1.75;;;15.60;64.10;;;;;;5098236;28;20036;-65
2023/03/29 12:08:59;;;;;;;4.60;1.30;;;15.00;63.70;;;;;;5090132;28;20031;-66
2023/03/29 12:11:37;;;;;;;3.88;1.52;;;14.60;65.20;;;;;;5078145;28;20033;-65
2023/03/29 12:14:16;;;;;;;4.00;1.60;;;14.70;65.90;;;;;;5076541;28;20024;-66
2023/03/29 12:16:50;;;;;;;4.63;1.70;;;14.80;66.00;;;;;;5079690;28;20016;-65
2023/03/29 12:19:30;;;;;;;5.72;1.73;;;14.70;66.10;;;;;;5082642;28;20031;-65
2023/03/29 12:21:58;;;;;;;5.72;1.70;;;14.40;67.10;;;;;;5077875;28;20016;-65
2023/03/29 12:24:27;;;;;;;7.18;1.90;;;14.40;67.30;;;;;;5077588;28;20064;-65
2023/03/29 12:27:09;;;;;;;4.78;1.83;;;14.50;66.30;;;;;;5082666;28;20066;-65
2023/03/29 12:29:40;;;;;;;5.63;2.20;;;14.50;66.90;;;;;;5089044;28;20027;-65
2023/03/29 12:32:25;;;;;;;4.63;1.50;;;14.50;66.50;;;;;;5088760;28;20061;-63
2023/03/29 12:35:15;;;;;;;6.25;1.60;;;14.40;66.80;;;;;;5076776;28;20029;-64
2023/03/29 12:38:07;;;;;;;4.60;1.70;;;14.20;66.90;;;;;;5078360;28;20028;-63
2023/03/29 12:40:41;;;;;;;4.75;1.48;;;14.20;67.30;;;;;;5091857;28;20020;-64
2023/03/29 12:43:22;;;;;;;4.55;1.55;;;13.90;68.80;;;;;;5093701;28;20049;-66
2023/03/29 12:45:52;;;;;;;4.85;1.77;;;13.80;68.90;;;;;;5092754;28;20477;-65
2023/03/29 12:48:22;;;;;;;4.40;1.73;;;13.70;72.30;;;;;;5090799;28;20036;-66
2023/03/29 12:51:01;;;;;;;4.88;2.25;;;13.30;73.50;;;;;;5079721;28;20032;-65
2023/03/29 12:53:34;;;;;;;2.97;1.38;;;13.00;73.20;;;;;;5088126;28;20302;-66
2023/03/29 12:56:07;;;;;;;5.38;1.65;;;12.80;75.70;;;;;;5095517;28;20024;-65
2023/03/29 12:58:38;;;;;;;5.63;2.20;;;12.70;74.40;;;;;;5084595;28;20082;-65
2023/03/29 13:01:21;;;;;;;5.50;2.10;;;12.80;75.40;;;;;;5085462;28;20020;-65
2023/03/29 13:03:56;;;;;;;4.97;1.60;;;13.00;75.60;;;;;;5093782;28;20040;-66
2023/03/29 13:06:49;;;;;;;4.43;1.63;;;13.40;71.00;;;;;;5094272;28;20024;-65
2023/03/29 13:09:31;;;;;;;4.57;1.92;;;13.70;70.60;;;;;;5077863;28;21504;-65
2023/03/29 13:12:22;;;;;;;6.85;1.50;;;14.20;71.10;;;;;;5081001;28;20039;-65